sensor_id;sensor_type;location;lat;lon;timestamp;P1;durP1;ratioP1;P2;durP2;ratioP2
18806;SDS011;9531;52.030;4.380;2023-04-03T00:00:29;3.57;;;1.20;;
18806;SDS011;9531;52.030;4.380;2023-04-03T00:02:56;2.27;;;1.10;;
18806;SDS011;9531;52.030;4.380;2023-04-03T00:05:23;3.17;;;0.97;;
18806;SDS011;9531;52.030;4.380;2023-04-03T00:07:50;4.43;;;1.00;;
18806;SDS011;9531;52.030;4.380;2023-04-03T00:10:17;4.70;;;1.23;;
18806;SDS011;9531;52.030;4.380;2023-04-03T00:12:46;1.53;;;1.07;;
18806;SDS011;9531;52.030;4.380;2023-04-03T00:15:12;1.83;;;1.10;;
18806;SDS011;9531;52.030;4.380;2023-04-03T00:17:41;2.87;;;1.20;;
18806;SDS011;9531;52.030;4.380;2023-04-03T00:20:09;3.07;;;1.20;;
18806;SDS011;9531;52.030;4.380;2023-04-03T00:22:36;1.40;;;1.00;;
18806;SDS011;9531;52.030;4.380;2023-04-03T00:25:04;3.13;;;1.10;;
18806;SDS011;9531;52.030;4.380;2023-04-03T00:27:32;2.87;;;1.17;;
18806;SDS011;9531;52.030;4.380;2023-04-03T00:30:00;2.03;;;1.07;;
18806;SDS011;9531;52.030;4.380;2023-04-03T00:32:27;2.33;;;1.23;;
18806;SDS011;9531;52.030;4.380;2023-04-03T00:34:55;4.93;;;1.20;;
18806;SDS011;9531;52.030;4.380;2023-04-03T00:37:21;2.90;;;1.20;;
18806;SDS011;9531;52.030;4.380;2023-04-03T00:39:48;3.77;;;1.13;;
18806;SDS011;9531;52.030;4.380;2023-04-03T00:42:15;3.37;;;1.03;;
18806;SDS011;9531;52.030;4.380;2023-04-03T00:47:48;1.63;;;1.00;;
18806;SDS011;9531;52.030;4.380;2023-04-03T00:50:16;2.43;;;1.20;;
18806;SDS011;9531;52.030;4.380;2023-04-03T00:52:43;2.17;;;1.10;;
18806;SDS011;9531;52.030;4.380;2023-04-03T00:55:14;1.77;;;1.17;;
18806;SDS011;9531;52.030;4.380;2023-04-03T00:57:42;2.77;;;1.10;;
18806;SDS011;9531;52.030;4.380;2023-04-03T01:00:11;1.93;;;1.10;;
18806;SDS011;9531;52.030;4.380;2023-04-03T01:02:41;3.87;;;1.20;;
18806;SDS011;9531;52.030;4.380;2023-04-03T01:05:09;2.30;;;1.10;;
18806;SDS011;9531;52.030;4.380;2023-04-03T01:07:37;1.90;;;1.10;;
18806;SDS011;9531;52.030;4.380;2023-04-03T01:10:08;2.33;;;1.10;;
18806;SDS011;9531;52.030;4.380;2023-04-03T01:12:39;4.00;;;1.37;;
18806;SDS011;9531;52.030;4.380;2023-04-03T01:15:08;1.67;;;1.07;;
18806;SDS011;9531;52.030;4.380;2023-04-03T01:17:37;1.40;;;1.07;;
18806;SDS011;9531;52.030;4.380;2023-04-03T01:20:21;2.20;;;1.07;;
18806;SDS011;9531;52.030;4.380;2023-04-03T01:23:12;2.83;;;1.40;;
18806;SDS011;9531;52.030;4.380;2023-04-03T01:25:54;2.60;;;1.30;;
18806;SDS011;9531;52.030;4.380;2023-04-03T01:28:24;2.10;;;1.30;;
18806;SDS011;9531;52.030;4.380;2023-04-03T01:30:55;1.43;;;1.10;;
18806;SDS011;9531;52.030;4.380;2023-04-03T01:33:28;2.50;;;1.33;;
18806;SDS011;9531;52.030;4.380;2023-04-03T01:35:55;4.50;;;1.20;;
18806;SDS011;9531;52.030;4.380;2023-04-03T01:38:22;3.20;;;1.00;;
18806;SDS011;9531;52.030;4.380;2023-04-03T01:40:50;2.37;;;1.37;;
18806;SDS011;9531;52.030;4.380;2023-04-03T01:43:17;2.23;;;1.30;;
18806;SDS011;9531;52.030;4.380;2023-04-03T01:45:44;3.20;;;1.40;;
18806;SDS011;9531;52.030;4.380;2023-04-03T01:48:11;3.20;;;1.27;;
18806;SDS011;9531;52.030;4.380;2023-04-03T01:50:40;1.90;;;1.20;;
18806;SDS011;9531;52.030;4.380;2023-04-03T01:53:07;2.03;;;1.20;;
18806;SDS011;9531;52.030;4.380;2023-04-03T01:55:36;1.57;;;1.17;;
18806;SDS011;9531;52.030;4.380;2023-04-03T01:58:03;3.53;;;1.17;;
18806;SDS011;9531;52.030;4.380;2023-04-03T02:00:30;2.37;;;1.20;;
18806;SDS011;9531;52.030;4.380;2023-04-03T02:02:57;1.70;;;1.20;;
18806;SDS011;9531;52.030;4.380;2023-04-03T02:05:24;1.80;;;1.23;;
18806;SDS011;9531;52.030;4.380;2023-04-03T02:07:52;3.07;;;1.03;;
18806;SDS011;9531;52.030;4.380;2023-04-03T02:10:19;2.40;;;1.10;;
18806;SDS011;9531;52.030;4.380;2023-04-03T02:12:46;1.77;;;1.30;;
18806;SDS011;9531;52.030;4.380;2023-04-03T02:15:13;3.83;;;1.40;;
18806;SDS011;9531;52.030;4.380;2023-04-03T02:17:40;2.13;;;1.20;;
18806;SDS011;9531;52.030;4.380;2023-04-03T02:20:07;3.33;;;1.10;;
18806;SDS011;9531;52.030;4.380;2023-04-03T02:22:35;2.03;;;1.13;;
18806;SDS011;9531;52.030;4.380;2023-04-03T02:25:03;2.30;;;1.40;;
18806;SDS011;9531;52.030;4.380;2023-04-03T02:27:31;2.53;;;1.30;;
18806;SDS011;9531;52.030;4.380;2023-04-03T02:29:58;1.77;;;1.20;;
18806;SDS011;9531;52.030;4.380;2023-04-03T02:32:25;3.80;;;1.23;;
18806;SDS011;9531;52.030;4.380;2023-04-03T02:34:52;2.07;;;1.00;;
18806;SDS011;9531;52.030;4.380;2023-04-03T02:37:19;1.60;;;1.20;;
18806;SDS011;9531;52.030;4.380;2023-04-03T02:39:46;1.53;;;1.20;;
18806;SDS011;9531;52.030;4.380;2023-04-03T02:42:15;2.00;;;1.00;;
18806;SDS011;9531;52.030;4.380;2023-04-03T02:44:42;3.17;;;1.33;;
18806;SDS011;9531;52.030;4.380;2023-04-03T02:47:09;2.30;;;1.20;;
18806;SDS011;9531;52.030;4.380;2023-04-03T02:49:37;3.40;;;1.60;;
18806;SDS011;9531;52.030;4.380;2023-04-03T02:52:04;1.93;;;1.10;;
18806;SDS011;9531;52.030;4.380;2023-04-03T02:54:31;2.40;;;1.27;;
18806;SDS011;9531;52.030;4.380;2023-04-03T02:56:58;1.90;;;1.30;;
18806;SDS011;9531;52.030;4.380;2023-04-03T02:59:26;3.73;;;1.40;;
18806;SDS011;9531;52.030;4.380;2023-04-03T03:01:53;1.97;;;1.20;;
18806;SDS011;9531;52.030;4.380;2023-04-03T03:04:20;2.13;;;1.47;;
18806;SDS011;9531;52.030;4.380;2023-04-03T03:06:47;2.23;;;1.43;;
18806;SDS011;9531;52.030;4.380;2023-04-03T03:09:14;2.67;;;1.43;;
18806;SDS011;9531;52.030;4.380;2023-04-03T03:11:41;2.30;;;1.30;;
18806;SDS011;9531;52.030;4.380;2023-04-03T03:14:08;2.40;;;1.50;;
18806;SDS011;9531;52.030;4.380;2023-04-03T03:16:37;1.70;;;1.17;;
18806;SDS011;9531;52.030;4.380;2023-04-03T03:19:03;1.60;;;1.13;;
18806;SDS011;9531;52.030;4.380;2023-04-03T03:21:31;3.07;;;1.43;;
18806;SDS011;9531;52.030;4.380;2023-04-03T03:23:58;2.90;;;1.60;;
18806;SDS011;9531;52.030;4.380;2023-04-03T03:26:26;3.10;;;1.20;;
18806;SDS011;9531;52.030;4.380;2023-04-03T03:28:53;4.50;;;1.63;;
18806;SDS011;9531;52.030;4.380;2023-04-03T03:31:20;3.80;;;1.30;;
18806;SDS011;9531;52.030;4.380;2023-04-03T03:33:48;2.20;;;1.27;;
18806;SDS011;9531;52.030;4.380;2023-04-03T03:36:15;3.77;;;1.30;;
18806;SDS011;9531;52.030;4.380;2023-04-03T03:38:42;2.03;;;1.30;;
18806;SDS011;9531;52.030;4.380;2023-04-03T03:41:09;3.10;;;1.10;;
18806;SDS011;9531;52.030;4.380;2023-04-03T03:43:36;3.83;;;1.50;;
18806;SDS011;9531;52.030;4.380;2023-04-03T03:46:03;2.70;;;1.50;;
18806;SDS011;9531;52.030;4.380;2023-04-03T03:48:30;2.80;;;1.30;;
18806;SDS011;9531;52.030;4.380;2023-04-03T03:50:58;2.87;;;1.30;;
18806;SDS011;9531;52.030;4.380;2023-04-03T03:53:25;2.87;;;1.67;;
18806;SDS011;9531;52.030;4.380;2023-04-03T03:55:52;3.70;;;1.50;;
18806;SDS011;9531;52.030;4.380;2023-04-03T03:58:18;3.90;;;1.60;;
18806;SDS011;9531;52.030;4.380;2023-04-03T04:00:45;4.40;;;1.70;;
18806;SDS011;9531;52.030;4.380;2023-04-03T04:03:13;2.43;;;1.20;;
18806;SDS011;9531;52.030;4.380;2023-04-03T04:05:39;3.23;;;1.53;;
18806;SDS011;9531;52.030;4.380;2023-04-03T04:08:09;3.07;;;1.40;;
18806;SDS011;9531;52.030;4.380;2023-04-03T04:10:36;2.30;;;1.40;;
18806;SDS011;9531;52.030;4.380;2023-04-03T04:13:04;2.47;;;1.33;;
18806;SDS011;9531;52.030;4.380;2023-04-03T04:15:31;2.57;;;1.40;;
18806;SDS011;9531;52.030;4.380;2023-04-03T04:17:58;3.53;;;1.53;;
18806;SDS011;9531;52.030;4.380;2023-04-03T04:20:25;2.50;;;1.40;;
18806;SDS011;9531;52.030;4.380;2023-04-03T04:22:52;2.10;;;1.30;;
18806;SDS011;9531;52.030;4.380;2023-04-03T04:25:20;4.97;;;1.57;;
18806;SDS011;9531;52.030;4.380;2023-04-03T04:27:47;3.10;;;1.43;;
18806;SDS011;9531;52.030;4.380;2023-04-03T04:30:14;1.90;;;1.20;;
18806;SDS011;9531;52.030;4.380;2023-04-03T04:32:41;2.30;;;1.60;;
18806;SDS011;9531;52.030;4.380;2023-04-03T04:35:08;3.77;;;2.00;;
18806;SDS011;9531;52.030;4.380;2023-04-03T04:37:35;3.10;;;1.60;;
18806;SDS011;9531;52.030;4.380;2023-04-03T04:40:02;2.37;;;1.30;;
18806;SDS011;9531;52.030;4.380;2023-04-03T04:42:31;3.00;;;1.60;;
18806;SDS011;9531;52.030;4.380;2023-04-03T04:44:57;4.37;;;1.50;;
18806;SDS011;9531;52.030;4.380;2023-04-03T04:47:24;2.93;;;1.23;;
18806;SDS011;9531;52.030;4.380;2023-04-03T04:49:51;4.17;;;1.70;;
18806;SDS011;9531;52.030;4.380;2023-04-03T04:52:18;3.20;;;1.47;;
18806;SDS011;9531;52.030;4.380;2023-04-03T04:54:46;3.57;;;1.80;;
18806;SDS011;9531;52.030;4.380;2023-04-03T04:57:12;5.13;;;1.73;;
18806;SDS011;9531;52.030;4.380;2023-04-03T04:59:41;2.47;;;1.50;;
18806;SDS011;9531;52.030;4.380;2023-04-03T05:02:08;4.83;;;1.73;;
18806;SDS011;9531;52.030;4.380;2023-04-03T05:04:35;3.60;;;1.67;;
18806;SDS011;9531;52.030;4.380;2023-04-03T05:07:02;4.23;;;1.47;;
18806;SDS011;9531;52.030;4.380;2023-04-03T05:09:30;3.30;;;1.70;;
18806;SDS011;9531;52.030;4.380;2023-04-03T05:11:57;3.63;;;1.70;;
18806;SDS011;9531;52.030;4.380;2023-04-03T05:14:24;1.83;;;1.50;;
18806;SDS011;9531;52.030;4.380;2023-04-03T05:16:54;2.27;;;1.47;;
18806;SDS011;9531;52.030;4.380;2023-04-03T05:19:22;2.57;;;1.40;;
18806;SDS011;9531;52.030;4.380;2023-04-03T05:21:48;2.30;;;1.50;;
18806;SDS011;9531;52.030;4.380;2023-04-03T05:24:15;4.60;;;1.70;;
18806;SDS011;9531;52.030;4.380;2023-04-03T05:26:43;4.17;;;1.80;;
18806;SDS011;9531;52.030;4.380;2023-04-03T05:29:10;4.77;;;1.73;;
18806;SDS011;9531;52.030;4.380;2023-04-03T05:31:37;3.33;;;1.53;;
18806;SDS011;9531;52.030;4.380;2023-04-03T05:34:05;2.27;;;1.50;;
18806;SDS011;9531;52.030;4.380;2023-04-03T05:36:32;2.80;;;1.80;;
18806;SDS011;9531;52.030;4.380;2023-04-03T05:38:59;3.23;;;1.63;;
18806;SDS011;9531;52.030;4.380;2023-04-03T05:41:26;3.57;;;1.70;;
18806;SDS011;9531;52.030;4.380;2023-04-03T05:43:53;2.83;;;1.90;;
18806;SDS011;9531;52.030;4.380;2023-04-03T05:46:20;4.73;;;2.00;;
18806;SDS011;9531;52.030;4.380;2023-04-03T05:48:47;2.30;;;1.50;;
18806;SDS011;9531;52.030;4.380;2023-04-03T05:51:16;3.17;;;1.70;;
18806;SDS011;9531;52.030;4.380;2023-04-03T05:53:44;3.00;;;1.43;;
18806;SDS011;9531;52.030;4.380;2023-04-03T05:56:12;3.20;;;1.60;;
18806;SDS011;9531;52.030;4.380;2023-04-03T05:58:39;3.83;;;1.90;;
18806;SDS011;9531;52.030;4.380;2023-04-03T06:01:06;4.57;;;1.90;;
18806;SDS011;9531;52.030;4.380;2023-04-03T06:03:34;5.10;;;1.80;;
18806;SDS011;9531;52.030;4.380;2023-04-03T06:06:02;3.90;;;2.00;;
18806;SDS011;9531;52.030;4.380;2023-04-03T06:08:33;4.17;;;2.07;;
18806;SDS011;9531;52.030;4.380;2023-04-03T06:11:00;3.00;;;1.80;;
18806;SDS011;9531;52.030;4.380;2023-04-03T06:13:28;4.13;;;1.97;;
18806;SDS011;9531;52.030;4.380;2023-04-03T06:15:55;4.13;;;2.10;;
18806;SDS011;9531;52.030;4.380;2023-04-03T06:18:22;3.87;;;2.27;;
18806;SDS011;9531;52.030;4.380;2023-04-03T06:20:49;5.43;;;2.07;;
18806;SDS011;9531;52.030;4.380;2023-04-03T06:23:16;6.60;;;2.57;;
18806;SDS011;9531;52.030;4.380;2023-04-03T06:25:44;5.37;;;1.97;;
18806;SDS011;9531;52.030;4.380;2023-04-03T06:28:12;4.47;;;1.97;;
18806;SDS011;9531;52.030;4.380;2023-04-03T06:30:39;3.40;;;1.70;;
18806;SDS011;9531;52.030;4.380;2023-04-03T06:33:06;3.30;;;1.67;;
18806;SDS011;9531;52.030;4.380;2023-04-03T06:35:33;6.70;;;1.95;;
18806;SDS011;9531;52.030;4.380;2023-04-03T06:38:00;3.78;;;2.10;;
18806;SDS011;9531;52.030;4.380;2023-04-03T06:40:29;4.00;;;1.50;;
18806;SDS011;9531;52.030;4.380;2023-04-03T06:42:57;4.72;;;1.65;;
18806;SDS011;9531;52.030;4.380;2023-04-03T06:45:24;3.00;;;1.65;;
18806;SDS011;9531;52.030;4.380;2023-04-03T06:47:54;6.30;;;1.98;;
18806;SDS011;9531;52.030;4.380;2023-04-03T06:50:21;4.07;;;1.98;;
18806;SDS011;9531;52.030;4.380;2023-04-03T06:52:48;5.65;;;2.05;;
18806;SDS011;9531;52.030;4.380;2023-04-03T06:55:15;4.70;;;1.90;;
18806;SDS011;9531;52.030;4.380;2023-04-03T06:57:42;4.95;;;1.70;;
18806;SDS011;9531;52.030;4.380;2023-04-03T07:00:11;3.08;;;1.80;;
18806;SDS011;9531;52.030;4.380;2023-04-03T07:02:39;3.63;;;1.77;;
18806;SDS011;9531;52.030;4.380;2023-04-03T07:05:07;3.60;;;1.55;;
18806;SDS011;9531;52.030;4.380;2023-04-03T07:07:34;4.88;;;1.58;;
18806;SDS011;9531;52.030;4.380;2023-04-03T07:10:03;4.30;;;1.88;;
18806;SDS011;9531;52.030;4.380;2023-04-03T07:12:31;4.68;;;1.70;;
18806;SDS011;9531;52.030;4.380;2023-04-03T07:14:58;3.40;;;1.80;;
18806;SDS011;9531;52.030;4.380;2023-04-03T07:17:27;6.22;;;1.77;;
18806;SDS011;9531;52.030;4.380;2023-04-03T07:19:54;3.58;;;1.67;;
18806;SDS011;9531;52.030;4.380;2023-04-03T07:22:21;4.60;;;1.65;;
18806;SDS011;9531;52.030;4.380;2023-04-03T07:24:48;4.20;;;1.75;;
18806;SDS011;9531;52.030;4.380;2023-04-03T07:27:15;5.47;;;1.80;;
18806;SDS011;9531;52.030;4.380;2023-04-03T07:29:42;4.70;;;1.75;;
18806;SDS011;9531;52.030;4.380;2023-04-03T07:32:11;2.80;;;1.30;;
18806;SDS011;9531;52.030;4.380;2023-04-03T07:34:39;4.68;;;1.60;;
18806;SDS011;9531;52.030;4.380;2023-04-03T07:37:06;3.03;;;1.70;;
18806;SDS011;9531;52.030;4.380;2023-04-03T07:39:35;3.63;;;1.60;;
18806;SDS011;9531;52.030;4.380;2023-04-03T07:42:01;4.57;;;1.80;;
18806;SDS011;9531;52.030;4.380;2023-04-03T07:44:28;3.83;;;1.85;;
18806;SDS011;9531;52.030;4.380;2023-04-03T07:46:56;6.30;;;1.60;;
18806;SDS011;9531;52.030;4.380;2023-04-03T07:49:23;1.70;;;1.48;;
18806;SDS011;9531;52.030;4.380;2023-04-03T07:51:53;3.40;;;1.60;;
18806;SDS011;9531;52.030;4.380;2023-04-03T07:54:20;2.70;;;1.45;;
18806;SDS011;9531;52.030;4.380;2023-04-03T07:56:47;3.80;;;1.58;;
18806;SDS011;9531;52.030;4.380;2023-04-03T07:59:14;3.50;;;1.67;;
18806;SDS011;9531;52.030;4.380;2023-04-03T08:01:41;3.67;;;1.52;;
18806;SDS011;9531;52.030;4.380;2023-04-03T08:04:08;4.35;;;1.40;;
18806;SDS011;9531;52.030;4.380;2023-04-03T08:06:37;3.58;;;1.25;;
18806;SDS011;9531;52.030;4.380;2023-04-03T08:09:05;2.85;;;1.10;;
18806;SDS011;9531;52.030;4.380;2023-04-03T08:11:32;3.42;;;1.38;;
18806;SDS011;9531;52.030;4.380;2023-04-03T08:13:59;4.00;;;1.30;;
18806;SDS011;9531;52.030;4.380;2023-04-03T08:16:28;2.85;;;1.40;;
18806;SDS011;9531;52.030;4.380;2023-04-03T08:18:55;2.13;;;1.10;;
18806;SDS011;9531;52.030;4.380;2023-04-03T08:21:22;4.65;;;1.35;;
18806;SDS011;9531;52.030;4.380;2023-04-03T08:23:50;3.30;;;1.20;;
18806;SDS011;9531;52.030;4.380;2023-04-03T08:26:19;3.15;;;1.15;;
18806;SDS011;9531;52.030;4.380;2023-04-03T08:28:48;2.03;;;1.17;;
18806;SDS011;9531;52.030;4.380;2023-04-03T08:31:16;2.72;;;0.88;;
18806;SDS011;9531;52.030;4.380;2023-04-03T08:33:44;2.72;;;1.20;;
18806;SDS011;9531;52.030;4.380;2023-04-03T08:36:19;2.58;;;1.25;;
18806;SDS011;9531;52.030;4.380;2023-04-03T08:38:46;3.35;;;1.40;;
18806;SDS011;9531;52.030;4.380;2023-04-03T08:41:16;4.43;;;1.40;;
18806;SDS011;9531;52.030;4.380;2023-04-03T08:43:56;3.67;;;1.10;;
18806;SDS011;9531;52.030;4.380;2023-04-03T08:46:32;3.45;;;1.02;;
18806;SDS011;9531;52.030;4.380;2023-04-03T08:49:10;3.40;;;1.23;;
18806;SDS011;9531;52.030;4.380;2023-04-03T08:51:42;2.13;;;0.90;;
18806;SDS011;9531;52.030;4.380;2023-04-03T08:54:17;2.25;;;1.02;;
18806;SDS011;9531;52.030;4.380;2023-04-03T08:56:52;3.65;;;1.25;;
18806;SDS011;9531;52.030;4.380;2023-04-03T08:59:21;3.15;;;1.10;;
18806;SDS011;9531;52.030;4.380;2023-04-03T09:01:53;2.47;;;1.02;;
18806;SDS011;9531;52.030;4.380;2023-04-03T09:04:22;2.22;;;1.08;;
18806;SDS011;9531;52.030;4.380;2023-04-03T09:06:59;2.80;;;1.10;;
18806;SDS011;9531;52.030;4.380;2023-04-03T09:09:33;4.10;;;1.02;;
18806;SDS011;9531;52.030;4.380;2023-04-03T09:12:12;1.80;;;1.08;;
18806;SDS011;9531;52.030;4.380;2023-04-03T09:14:46;2.72;;;1.15;;
18806;SDS011;9531;52.030;4.380;2023-04-03T09:17:22;2.33;;;0.98;;
18806;SDS011;9531;52.030;4.380;2023-04-03T09:20:02;2.53;;;1.20;;
18806;SDS011;9531;52.030;4.380;2023-04-03T09:22:40;3.30;;;0.93;;
18806;SDS011;9531;52.030;4.380;2023-04-03T09:25:12;2.88;;;1.00;;
18806;SDS011;9531;52.030;4.380;2023-04-03T09:27:43;1.05;;;0.60;;
18806;SDS011;9531;52.030;4.380;2023-04-03T09:30:12;1.80;;;0.80;;
18806;SDS011;9531;52.030;4.380;2023-04-03T09:32:40;4.03;;;0.90;;
18806;SDS011;9531;52.030;4.380;2023-04-03T09:35:15;1.25;;;0.85;;
18806;SDS011;9531;52.030;4.380;2023-04-03T09:37:45;2.03;;;0.70;;
18806;SDS011;9531;52.030;4.380;2023-04-03T09:40:27;1.70;;;0.80;;
18806;SDS011;9531;52.030;4.380;2023-04-03T09:45:49;2.25;;;0.90;;
18806;SDS011;9531;52.030;4.380;2023-04-03T09:48:18;1.45;;;0.80;;
18806;SDS011;9531;52.030;4.380;2023-04-03T09:53:41;1.30;;;0.70;;
18806;SDS011;9531;52.030;4.380;2023-04-03T09:56:18;2.17;;;0.70;;
18806;SDS011;9531;52.030;4.380;2023-04-03T09:58:49;1.83;;;0.70;;
18806;SDS011;9531;52.030;4.380;2023-04-03T10:01:23;1.23;;;0.70;;
18806;SDS011;9531;52.030;4.380;2023-04-03T10:04:03;3.03;;;0.68;;
18806;SDS011;9531;52.030;4.380;2023-04-03T10:06:34;1.88;;;0.70;;
18806;SDS011;9531;52.030;4.380;2023-04-03T10:09:06;1.38;;;0.80;;
18806;SDS011;9531;52.030;4.380;2023-04-03T10:11:50;2.00;;;0.70;;
18806;SDS011;9531;52.030;4.380;2023-04-03T10:14:26;1.95;;;0.90;;
18806;SDS011;9531;52.030;4.380;2023-04-03T10:16:56;2.63;;;0.95;;
18806;SDS011;9531;52.030;4.380;2023-04-03T10:19:31;1.15;;;0.70;;
18806;SDS011;9531;52.030;4.380;2023-04-03T10:22:06;1.60;;;0.80;;
18806;SDS011;9531;52.030;4.380;2023-04-03T10:24:48;0.88;;;0.52;;
18806;SDS011;9531;52.030;4.380;2023-04-03T10:27:22;1.30;;;0.60;;
18806;SDS011;9531;52.030;4.380;2023-04-03T10:30:01;1.77;;;0.70;;
18806;SDS011;9531;52.030;4.380;2023-04-03T10:32:41;1.48;;;0.80;;
18806;SDS011;9531;52.030;4.380;2023-04-03T10:35:25;1.88;;;0.88;;
18806;SDS011;9531;52.030;4.380;2023-04-03T10:38:04;1.17;;;0.80;;
18806;SDS011;9531;52.030;4.380;2023-04-03T10:40:39;1.08;;;0.60;;
18806;SDS011;9531;52.030;4.380;2023-04-03T10:43:14;1.73;;;0.70;;
18806;SDS011;9531;52.030;4.380;2023-04-03T10:45:57;2.03;;;0.80;;
18806;SDS011;9531;52.030;4.380;2023-04-03T10:48:35;1.02;;;0.65;;
18806;SDS011;9531;52.030;4.380;2023-04-03T10:51:16;1.98;;;0.80;;
18806;SDS011;9531;52.030;4.380;2023-04-03T10:53:52;1.63;;;0.63;;
18806;SDS011;9531;52.030;4.380;2023-04-03T10:56:27;1.85;;;0.80;;
18806;SDS011;9531;52.030;4.380;2023-04-03T10:58:58;2.28;;;0.75;;
18806;SDS011;9531;52.030;4.380;2023-04-03T11:01:36;1.83;;;0.60;;
18806;SDS011;9531;52.030;4.380;2023-04-03T11:04:06;1.45;;;0.60;;
18806;SDS011;9531;52.030;4.380;2023-04-03T11:06:36;1.15;;;0.57;;
18806;SDS011;9531;52.030;4.380;2023-04-03T11:09:10;2.50;;;0.60;;
18806;SDS011;9531;52.030;4.380;2023-04-03T11:11:51;2.05;;;0.77;;
18806;SDS011;9531;52.030;4.380;2023-04-03T11:14:24;1.42;;;0.60;;
18806;SDS011;9531;52.030;4.380;2023-04-03T11:16:59;0.93;;;0.68;;
18806;SDS011;9531;52.030;4.380;2023-04-03T11:19:34;2.60;;;0.60;;
18806;SDS011;9531;52.030;4.380;2023-04-03T11:22:08;1.10;;;0.50;;
18806;SDS011;9531;52.030;4.380;2023-04-03T11:24:41;1.05;;;0.60;;
18806;SDS011;9531;52.030;4.380;2023-04-03T11:27:15;1.48;;;0.70;;
18806;SDS011;9531;52.030;4.380;2023-04-03T11:29:53;1.63;;;0.60;;
18806;SDS011;9531;52.030;4.380;2023-04-03T11:35:15;2.20;;;0.50;;
18806;SDS011;9531;52.030;4.380;2023-04-03T11:37:44;1.10;;;0.40;;
18806;SDS011;9531;52.030;4.380;2023-04-03T11:40:22;1.58;;;0.60;;
18806;SDS011;9531;52.030;4.380;2023-04-03T11:42:52;1.63;;;0.75;;
18806;SDS011;9531;52.030;4.380;2023-04-03T11:45:34;1.67;;;0.60;;
18806;SDS011;9531;52.030;4.380;2023-04-03T11:48:06;0.45;;;0.38;;
18806;SDS011;9531;52.030;4.380;2023-04-03T11:50:53;1.30;;;0.60;;
18806;SDS011;9531;52.030;4.380;2023-04-03T11:53:28;0.90;;;0.43;;
18806;SDS011;9531;52.030;4.380;2023-04-03T11:55:58;0.95;;;0.70;;
18806;SDS011;9531;52.030;4.380;2023-04-03T11:58:40;3.13;;;0.47;;
18806;SDS011;9531;52.030;4.380;2023-04-03T12:04:20;1.02;;;0.47;;
18806;SDS011;9531;52.030;4.380;2023-04-03T12:12:43;0.50;;;0.40;;
18806;SDS011;9531;52.030;4.380;2023-04-03T12:15:37;1.63;;;0.40;;
18806;SDS011;9531;52.030;4.380;2023-04-03T12:21:08;0.40;;;0.38;;
18806;SDS011;9531;52.030;4.380;2023-04-03T12:23:36;0.98;;;0.30;;
18806;SDS011;9531;52.030;4.380;2023-04-03T12:26:22;1.13;;;0.30;;
18806;SDS011;9531;52.030;4.380;2023-04-03T12:28:53;1.40;;;0.40;;
18806;SDS011;9531;52.030;4.380;2023-04-03T12:31:23;0.47;;;0.47;;
18806;SDS011;9531;52.030;4.380;2023-04-03T12:34:04;0.57;;;0.40;;
18806;SDS011;9531;52.030;4.380;2023-04-03T12:36:43;0.55;;;0.45;;
18806;SDS011;9531;52.030;4.380;2023-04-03T12:42:18;1.23;;;0.50;;
18806;SDS011;9531;52.030;4.380;2023-04-03T12:44:56;0.73;;;0.50;;
18806;SDS011;9531;52.030;4.380;2023-04-03T12:47:29;0.80;;;0.50;;
18806;SDS011;9531;52.030;4.380;2023-04-03T12:50:02;0.80;;;0.60;;
18806;SDS011;9531;52.030;4.380;2023-04-03T12:52:35;0.70;;;0.32;;
18806;SDS011;9531;52.030;4.380;2023-04-03T12:55:14;1.45;;;0.52;;
18806;SDS011;9531;52.030;4.380;2023-04-03T12:57:42;1.08;;;0.40;;
18806;SDS011;9531;52.030;4.380;2023-04-03T13:00:19;0.77;;;0.40;;
18806;SDS011;9531;52.030;4.380;2023-04-03T13:02:48;2.20;;;0.43;;
18806;SDS011;9531;52.030;4.380;2023-04-03T13:05:18;1.05;;;0.55;;
18806;SDS011;9531;52.030;4.380;2023-04-03T13:07:49;1.33;;;0.40;;
18806;SDS011;9531;52.030;4.380;2023-04-03T13:10:18;1.35;;;0.60;;
18806;SDS011;9531;52.030;4.380;2023-04-03T13:12:48;1.50;;;0.50;;
18806;SDS011;9531;52.030;4.380;2023-04-03T13:15:17;0.70;;;0.40;;
18806;SDS011;9531;52.030;4.380;2023-04-03T13:17:53;0.63;;;0.40;;
18806;SDS011;9531;52.030;4.380;2023-04-03T13:20:23;0.70;;;0.50;;
18806;SDS011;9531;52.030;4.380;2023-04-03T13:22:56;1.25;;;0.50;;
18806;SDS011;9531;52.030;4.380;2023-04-03T13:25:26;2.95;;;0.93;;
18806;SDS011;9531;52.030;4.380;2023-04-03T13:27:55;0.60;;;0.50;;
18806;SDS011;9531;52.030;4.380;2023-04-03T13:30:32;2.10;;;0.68;;
18806;SDS011;9531;52.030;4.380;2023-04-03T13:33:03;2.80;;;0.60;;
18806;SDS011;9531;52.030;4.380;2023-04-03T13:35:35;1.73;;;0.65;;
18806;SDS011;9531;52.030;4.380;2023-04-03T13:38:06;2.33;;;0.80;;
18806;SDS011;9531;52.030;4.380;2023-04-03T13:40:48;1.85;;;0.60;;
18806;SDS011;9531;52.030;4.380;2023-04-03T13:43:20;0.95;;;0.60;;
18806;SDS011;9531;52.030;4.380;2023-04-03T13:45:55;1.58;;;0.80;;
18806;SDS011;9531;52.030;4.380;2023-04-03T13:48:25;1.52;;;0.60;;
18806;SDS011;9531;52.030;4.380;2023-04-03T13:50:58;2.15;;;0.65;;
18806;SDS011;9531;52.030;4.380;2023-04-03T13:53:27;2.25;;;0.60;;
18806;SDS011;9531;52.030;4.380;2023-04-03T13:55:57;1.75;;;0.65;;
18806;SDS011;9531;52.030;4.380;2023-04-03T13:58:30;1.90;;;0.70;;
18806;SDS011;9531;52.030;4.380;2023-04-03T14:01:00;1.35;;;0.60;;
18806;SDS011;9531;52.030;4.380;2023-04-03T14:03:37;1.40;;;0.75;;
18806;SDS011;9531;52.030;4.380;2023-04-03T14:06:10;3.60;;;0.77;;
18806;SDS011;9531;52.030;4.380;2023-04-03T14:08:38;2.35;;;1.00;;
18806;SDS011;9531;52.030;4.380;2023-04-03T14:11:08;1.85;;;0.90;;
18806;SDS011;9531;52.030;4.380;2023-04-03T14:13:39;1.00;;;0.70;;
18806;SDS011;9531;52.030;4.380;2023-04-03T14:16:07;1.98;;;0.63;;
18806;SDS011;9531;52.030;4.380;2023-04-03T14:18:40;1.67;;;0.77;;
18806;SDS011;9531;52.030;4.380;2023-04-03T14:21:09;1.40;;;0.75;;
18806;SDS011;9531;52.030;4.380;2023-04-03T14:23:37;6.75;;;0.90;;
18806;SDS011;9531;52.030;4.380;2023-04-03T14:26:09;2.75;;;0.80;;
18806;SDS011;9531;52.030;4.380;2023-04-03T14:28:46;2.50;;;0.90;;
18806;SDS011;9531;52.030;4.380;2023-04-03T14:31:15;2.00;;;0.60;;
18806;SDS011;9531;52.030;4.380;2023-04-03T14:33:48;1.50;;;0.88;;
18806;SDS011;9531;52.030;4.380;2023-04-03T14:36:17;1.80;;;0.63;;
18806;SDS011;9531;52.030;4.380;2023-04-03T14:38:46;2.42;;;0.98;;
18806;SDS011;9531;52.030;4.380;2023-04-03T14:41:15;1.25;;;0.70;;
18806;SDS011;9531;52.030;4.380;2023-04-03T14:43:44;1.95;;;0.88;;
18806;SDS011;9531;52.030;4.380;2023-04-03T14:46:12;1.00;;;0.70;;
18806;SDS011;9531;52.030;4.380;2023-04-03T14:48:40;1.95;;;0.75;;
18806;SDS011;9531;52.030;4.380;2023-04-03T14:51:09;2.03;;;0.75;;
18806;SDS011;9531;52.030;4.380;2023-04-03T14:53:38;1.30;;;0.70;;
18806;SDS011;9531;52.030;4.380;2023-04-03T14:56:10;1.60;;;0.70;;
18806;SDS011;9531;52.030;4.380;2023-04-03T14:58:39;1.73;;;0.70;;
18806;SDS011;9531;52.030;4.380;2023-04-03T15:01:06;1.05;;;0.60;;
18806;SDS011;9531;52.030;4.380;2023-04-03T15:03:34;3.03;;;1.00;;
18806;SDS011;9531;52.030;4.380;2023-04-03T15:06:01;1.13;;;0.70;;
18806;SDS011;9531;52.030;4.380;2023-04-03T15:08:28;1.35;;;0.60;;
18806;SDS011;9531;52.030;4.380;2023-04-03T15:10:58;2.78;;;0.70;;
18806;SDS011;9531;52.030;4.380;2023-04-03T15:13:26;2.10;;;0.70;;
18806;SDS011;9531;52.030;4.380;2023-04-03T15:15:53;1.80;;;0.98;;
18806;SDS011;9531;52.030;4.380;2023-04-03T15:18:20;2.95;;;0.90;;
18806;SDS011;9531;52.030;4.380;2023-04-03T15:20:51;1.45;;;0.70;;
18806;SDS011;9531;52.030;4.380;2023-04-03T15:23:18;1.35;;;0.70;;
18806;SDS011;9531;52.030;4.380;2023-04-03T15:25:54;1.80;;;0.60;;
18806;SDS011;9531;52.030;4.380;2023-04-03T15:28:24;1.63;;;0.70;;
18806;SDS011;9531;52.030;4.380;2023-04-03T15:30:56;1.30;;;0.60;;
18806;SDS011;9531;52.030;4.380;2023-04-03T15:33:23;2.47;;;0.90;;
18806;SDS011;9531;52.030;4.380;2023-04-03T15:35:50;2.08;;;0.70;;
18806;SDS011;9531;52.030;4.380;2023-04-03T15:38:17;2.38;;;0.82;;
18806;SDS011;9531;52.030;4.380;2023-04-03T15:40:44;1.75;;;0.82;;
18806;SDS011;9531;52.030;4.380;2023-04-03T15:43:13;1.48;;;0.80;;